Time;durP1;ratioP1;P1;durP2;ratioP2;P2;SDS_P1;SDS_P2;PMS_P1;PMS_P2;Temp;Humidity;BMP_temperature;BMP_pressure;BME280_temperature;BME280_humidity;BME280_pressure;Samples;Min_cycle;Max_cycle;Signal;HPM_P1;HPM_P2
2023/09/07 00:00:29;;;;;;;;;;;;;;;5.66;100.00;99897.19;5083506;28;20435;-84
2023/09/07 00:02:54;;;;;;;;;;;;;;;5.65;100.00;99901.59;5083795;28;20015;-83
2023/09/07 00:05:20;;;;;;;;;;;;;;;5.65;100.00;99898.97;5065275;28;20306;-83
2023/09/07 08:01:21;;;;;;;;;;;;;;;;;;;;;
2023/09/07 08:04:07;;;;;;;;;;;;;;;7.62;100.00;99916.97;5030854;28;19921;-87
2023/09/07 08:06:58;;;;;;;;;;;;;;;7.70;100.00;99914.13;5033403;28;19925;-87
2023/09/07 08:09:17;;;;;;;;;;;;;;;7.70;100.00;99911.47;5032381;28;19921;-86
2023/09/07 08:11:44;;;;;;;;;;;;;;;7.62;100.00;99909.06;5033363;28;20378;-87
2023/09/07 08:14:09;;;;;;;;;;;;;;;7.65;100.00;99911.59;5033252;28;20008;-86
2023/09/07 08:16:35;;;;;;;;;;;;;;;7.73;100.00;99914.88;5031951;28;20008;-86
2023/09/07 08:19:00;;;;;;;;;;;;;;;7.70;100.00;99904.41;5033187;28;19917;-86
2023/09/07 08:21:26;;;;;;;;;;;;;;;7.76;100.00;99904.25;5033074;28;20308;-86
2023/09/07 08:23:52;;;;;;;;;;;;;;;7.77;100.00;99905.09;5015413;28;19975;-87
2023/09/07 08:26:19;;;;;;;;;;;;;;;7.77;100.00;99908.63;5033075;28;19917;-85
2023/09/07 08:28:46;;;;;;;;;;;;;;;7.73;100.00;99908.75;5033063;28;19978;-86
2023/09/07 08:31:13;;;;;;;;;;;;;;;7.78;100.00;99902.41;5013915;28;19917;-86
2023/09/07 08:33:40;;;;;;;;;;;;;;;7.84;100.00;99911.09;5032842;28;19980;-86
2023/09/07 08:36:05;;;;;;;;;;;;;;;7.81;100.00;99902.31;5032936;28;20335;-87
2023/09/07 08:38:30;;;;;;;;;;;;;;;7.82;100.00;99904.06;5015212;28;19968;-86
2023/09/07 08:41:00;;;;;;;;;;;;;;;7.86;100.00;99903.97;5032896;28;19917;-87
2023/09/07 08:43:26;;;;;;;;;;;;;;;7.87;100.00;99905.72;5032812;28;19917;-87
2023/09/07 08:45:59;;;;;;;;;;;;;;;7.89;100.00;99909.16;5013703;28;20388;-86
2023/09/07 08:48:25;;;;;;;;;;;;;;;7.89;100.00;99893.34;5015759;28;19921;-87
2023/09/07 08:50:52;;;;;;;;;;;;;;;7.93;100.00;99906.41;5031807;28;19976;-87
2023/09/07 08:53:19;;;;;;;;;;;;;;;7.86;100.00;99906.63;5032362;28;19917;-87
2023/09/07 08:55:45;;;;;;;;;;;;;;;7.93;100.00;99902.88;5014772;28;20372;-87
2023/09/07 08:58:10;;;;;;;;;;;;;;;7.88;100.00;99899.50;5032489;28;19923;-87
2023/09/07 09:00:36;;;;;;;;;;;;;;;7.93;100.00;99905.50;5031237;28;19921;-86
2023/09/07 09:03:03;;;;;;;;;;;;;;;7.95;100.00;99901.06;5032186;28;20273;-87
2023/09/07 09:05:29;;;;;;;;;;;;;;;7.94;100.00;99899.34;5032392;28;20241;-87
2023/09/07 09:08:02;;;;;;;;;;;;;;;7.99;100.00;99895.66;5032047;28;19924;-85
2023/09/07 09:10:28;;;;;;;;;;;;;;;7.96;100.00;99892.22;5032412;28;19924;-87
2023/09/07 09:12:53;;;;;;;;;;;;;;;7.95;100.00;99898.44;5032298;28;19921;-86
2023/09/07 09:15:18;;;;;;;;;;;;;;;7.97;100.00;99893.97;5013020;28;19925;-86
2023/09/07 09:17:43;;;;;;;;;;;;;;;7.97;100.00;99902.72;5032189;28;19920;-86
2023/09/07 09:20:27;;;;;;;;;;;;;;;8.00;100.00;99904.44;5032100;28;19964;-86
2023/09/07 09:22:53;;;;;;;;;;;;;;;7.99;100.00;99895.66;5032240;28;19948;-87
2023/09/07 09:25:18;;;;;;;;;;;;;;;8.02;100.00;99897.31;5032014;28;19963;-86
2023/09/07 09:27:43;;;;;;;;;;;;;;;8.02;100.00;99901.75;5032359;28;19917;-86
2023/09/07 09:30:09;;;;;;;;;;;;;;;7.99;100.00;99897.41;5012859;28;20280;-86
2023/09/07 09:32:43;;;;;;;;;;;;;;;8.00;100.00;99905.28;5031947;28;19936;-86
2023/09/07 09:35:09;;;;;;;;;;;;;;;8.00;100.00;99897.38;5031908;28;20505;-86
2023/09/07 09:37:45;;;;;;;;;;;;;;;8.14;100.00;99894.31;5031976;28;19917;-86
2023/09/07 09:40:11;;;;;;;;;;;;;;;8.07;100.00;99895.41;5013820;28;19967;-87
2023/09/07 09:42:38;;;;;;;;;;;;;;;8.07;100.00;99890.13;5032123;28;19976;-86
2023/09/07 09:45:05;;;;;;;;;;;;;;;8.13;100.00;99894.34;5030487;28;19968;-87
2023/09/07 09:47:31;;;;;;;;;;;;;;;8.13;100.00;99889.94;5030136;28;19921;-88
2023/09/07 09:49:59;;;;;;;;;;;;;;;8.08;100.00;99891.00;5032006;28;20334;-86
2023/09/07 09:52:27;;;;;;;;;;;;;;;8.12;100.00;99888.22;5031761;28;20008;-87
2023/09/07 09:54:53;;;;;;;;;;;;;;;8.06;100.00;99888.41;5031744;28;20359;-86
2023/09/07 09:57:18;;;;;;;;;;;;;;;8.08;100.00;99883.09;5013845;28;19968;-86
2023/09/07 09:59:44;;;;;;;;;;;;;;;8.12;100.00;99882.94;5030433;28;19917;-87
2023/09/07 10:02:10;;;;;;;;;;;;;;;8.18;100.00;99880.13;5031590;28;19933;-86
2023/09/07 10:04:37;;;;;;;;;;;;;;;8.09;100.00;99872.47;5031821;28;19979;-87
2023/09/07 10:07:05;;;;;;;;;;;;;;;8.16;100.00;99878.44;5031629;28;19920;-89
2023/09/07 10:09:33;;;;;;;;;;;;;;;8.13;100.00;99871.47;5013985;28;19917;-86
2023/09/07 10:11:59;;;;;;;;;;;;;;;8.20;100.00;99872.16;5031067;28;20287;-84
2023/09/07 10:14:25;;;;;;;;;;;;;;;8.19;100.00;99873.06;5031380;28;20012;-86
2023/09/07 10:16:55;;;;;;;;;;;;;;;8.21;100.00;99878.28;5012659;28;19971;-86
2023/09/07 10:19:24;;;;;;;;;;;;;;;8.19;100.00;99873.06;5032397;28;19917;-85
2023/09/07 10:21:50;;;;;;;;;;;;;;;8.24;100.00;99872.91;5035067;28;19928;-85
2023/09/07 10:24:25;;;;;;;;;;;;;;;8.23;100.00;99871.16;5035163;28;19967;-88
2023/09/07 10:27:02;;;;;;;;;;;;;;;8.30;100.00;99870.06;5008965;28;19921;-86
2023/09/07 10:29:27;;;;;;;;;;;;;;;8.26;100.00;99871.06;5035342;28;19917;-85
2023/09/07 10:31:53;;;;;;;;;;;;;;;8.28;100.00;99867.47;5034014;28;19983;-86
2023/09/07 10:34:18;;;;;;;;;;;;;;;8.33;100.00;99864.69;5035124;28;20016;-85
2023/09/07 10:36:43;;;;;;;;;;;;;;;8.33;100.00;99860.28;5035001;28;19979;-87
2023/09/07 10:39:09;;;;;;;;;;;;;;;8.33;100.00;99855.00;5017254;28;19917;-85
2023/09/07 10:41:42;;;;;;;;;;;;;;;8.30;100.00;99847.16;5017285;28;19924;-86
2023/09/07 10:44:07;;;;;;;;;;;;;;;8.35;100.00;99857.59;5034831;28;19987;-86
2023/09/07 10:46:32;;;;;;;;;;;;;;;8.34;100.00;99854.09;5033707;28;20357;-88
2023/09/07 10:48:58;;;;;;;;;;;;;;;8.38;100.00;99857.50;5017165;28;19921;-87
2023/09/07 10:51:43;;;;;;;;;;;;;;;8.37;100.00;99848.69;5034750;28;19925;-92
2023/09/07 10:54:18;;;;;;;;;;;;;;;8.37;100.00;99847.81;5034538;28;19921;-86
2023/09/07 10:56:44;;;;;;;;;;;;;;;8.40;100.00;99853.00;5016563;28;20379;-86
2023/09/07 10:59:09;;;;;;;;;;;;;;;8.38;100.00;99849.56;5016970;28;19920;-85
2023/09/07 11:01:35;;;;;;;;;;;;;;;8.42;100.00;99856.44;5033318;28;19917;-86
2023/09/07 11:04:00;;;;;;;;;;;;;;;8.42;100.00;99852.97;5033731;28;20400;-86
2023/09/07 11:06:26;;;;;;;;;;;;;;;8.43;100.00;99849.41;5033676;28;19959;-86
2023/09/07 11:08:51;;;;;;;;;;;;;;;8.41;100.00;99846.81;5034708;28;19924;-85
2023/09/07 11:11:17;;;;;;;;;;;;;;;8.40;100.00;99849.53;5034514;28;20437;-87
2023/09/07 11:13:42;;;;;;;;;;;;;;;8.41;100.00;99848.59;5016709;28;20395;-92
2023/09/07 11:16:10;;;;;;;;;;;;;;;8.47;100.00;99854.59;5033047;28;19940;-87
2023/09/07 11:18:38;;;;;;;;;;;;;;;8.44;100.00;99854.69;5034319;28;19924;-88
2023/09/07 11:21:07;;;;;;;;;;;;;;;8.45;100.00;99851.09;5016152;28;20288;-87
2023/09/07 11:23:37;;;;;;;;;;;;;;;8.49;100.00;99851.88;5016529;28;19913;-88
2023/09/07 11:26:07;;;;;;;;;;;;;;;8.49;100.00;99847.47;5033754;28;19925;-88
2023/09/07 11:28:33;;;;;;;;;;;;;;;8.51;100.00;99845.63;5016389;28;19924;-87
2023/09/07 11:30:58;;;;;;;;;;;;;;;8.49;100.00;99847.47;5032445;28;19918;-86
2023/09/07 11:33:24;;;;;;;;;;;;;;;8.46;100.00;99847.56;5016337;28;20019;-88
2023/09/07 11:35:50;;;;;;;;;;;;;;;8.44;100.00;99841.47;5034007;28;20368;-87
2023/09/07 11:38:16;;;;;;;;;;;;;;;8.49;100.00;99850.09;5034046;28;20008;-87
2023/09/07 11:40:45;;;;;;;;;;;;;;;8.43;100.00;99841.50;5016235;28;20361;-87
2023/09/07 11:43:23;;;;;;;;;;;;;;;8.51;100.00;99850.91;5015885;28;19940;-87
2023/09/07 11:45:49;;;;;;;;;;;;;;;8.51;100.00;99850.06;5032394;28;19966;-87
2023/09/07 11:48:14;;;;;;;;;;;;;;;8.51;100.00;99839.50;5033798;28;19996;-87
2023/09/07 11:50:40;;;;;;;;;;;;;;;8.50;100.00;99841.28;5033830;28;20008;-87
2023/09/07 11:53:06;;;;;;;;;;;;;;;8.51;100.00;99845.63;5033843;28;19924;-87
2023/09/07 11:55:31;;;;;;;;;;;;;;;8.54;100.00;99832.31;5033443;28;20017;-88
2023/09/07 11:57:57;;;;;;;;;;;;;;;8.54;100.00;99839.38;5033765;28;19921;-86
2023/09/07 12:00:23;;;;;;;;;;;;;;;8.49;100.00;99830.75;5032041;28;19917;-88
2023/09/07 12:02:48;;;;;;;;;;;;;;;8.53;100.00;99827.94;5033470;28;20277;-87
2023/09/07 12:05:15;;;;;;;;;;;;;;;8.51;100.00;99823.66;5015685;28;19923;-88
2023/09/07 12:07:40;;;;;;;;;;;;;;;8.56;100.00;99828.78;5033433;28;19957;-87
2023/09/07 12:10:06;;;;;;;;;;;;;;;8.56;100.00;99826.13;5033591;28;19949;-87
2023/09/07 12:12:31;;;;;;;;;;;;;;;8.53;100.00;99832.38;5033269;28;19918;-87
2023/09/07 12:14:56;;;;;;;;;;;;;;;8.54;100.00;99829.69;5031921;28;20395;-87
2023/09/07 12:17:22;;;;;;;;;;;;;;;8.57;100.00;99822.56;5033099;28;19917;-85
2023/09/07 12:19:47;;;;;;;;;;;;;;;8.60;100.00;99817.16;5033400;28;19925;-88
2023/09/07 12:22:13;;;;;;;;;;;;;;;8.59;100.00;99820.75;5033204;28;19921;-88
2023/09/07 12:24:38;;;;;;;;;;;;;;;8.63;100.00;99815.31;5033119;28;19925;-88
2023/09/07 12:27:03;;;;;;;;;;;;;;;8.63;100.00;99820.59;5033090;28;20394;-88
2023/09/07 12:29:29;;;;;;;;;;;;;;;8.67;100.00;99813.41;5015590;28;19928;-88
2023/09/07 12:31:54;;;;;;;;;;;;;;;8.64;100.00;99813.53;5031947;28;19917;-87
2023/09/07 12:34:19;;;;;;;;;;;;;;;8.66;100.00;99809.03;5015116;28;19960;-87
2023/09/07 12:36:45;;;;;;;;;;;;;;;8.65;100.00;99810.84;5033115;28;19917;-87
2023/09/07 12:39:12;;;;;;;;;;;;;;;8.64;100.00;99806.44;5032942;28;20276;-89
2023/09/07 12:41:37;;;;;;;;;;;;;;;8.64;100.00;99814.38;5031358;28;19921;-92
2023/09/07 12:44:03;;;;;;;;;;;;;;;8.99;100.00;99817.56;5015110;28;19928;-85
2023/09/07 12:46:28;;;;;;;;;;;;;;;8.82;100.00;99812.91;5013581;28;19923;-87
2023/09/07 12:48:53;;;;;;;;;;;;;;;8.79;100.00;99812.13;5032656;28;20438;-89
2023/09/07 12:51:39;;;;;;;;;;;;;;;8.71;100.00;99802.69;5015077;28;20003;-93
2023/09/07 12:54:05;;;;;;;;;;;;;;;8.76;100.00;99807.81;5032199;28;20021;-85
2023/09/07 12:56:30;;;;;;;;;;;;;;;8.69;100.00;99799.22;5014745;28;20003;-88
2023/09/07 12:59:03;;;;;;;;;;;;;;;8.67;100.00;99797.56;5032428;28;20391;-88
2023/09/07 13:01:29;;;;;;;;;;;;;;;8.69;100.00;99798.38;5030002;28;19917;-88
2023/09/07 13:03:54;;;;;;;;;;;;;;;8.68;100.00;99796.63;5032261;28;19952;-86
2023/09/07 13:06:20;;;;;;;;;;;;;;;8.72;100.00;99796.47;5032274;28;19917;-88
2023/09/07 13:08:45;;;;;;;;;;;;;;;8.74;100.00;99793.78;5032367;28;20366;-85
2023/09/07 13:11:11;;;;;;;;;;;;;;;8.77;100.00;99793.69;5032309;28;19996;-88
2023/09/07 13:13:36;;;;;;;;;;;;;;;8.77;100.00;99788.38;4989894;28;19966;-86
2023/09/07 13:16:01;;;;;;;;;;;;;;;8.77;100.00;99785.75;5030804;28;19921;-87
2023/09/07 13:18:27;;;;;;;;;;;;;;;8.80;100.00;99783.00;5014246;28;19917;-88
2023/09/07 13:20:55;;;;;;;;;;;;;;;8.79;100.00;99783.94;5032301;28;20043;-87
2023/09/07 13:23:20;;;;;;;;;;;;;;;8.78;100.00;99779.56;5015189;28;19943;-86
2023/09/07 13:25:45;;;;;;;;;;;;;;;8.77;100.00;99780.47;5014118;28;19925;-88
2023/09/07 13:28:10;;;;;;;;;;;;;;;8.81;100.00;99778.59;5014268;28;19948;-87
2023/09/07 13:30:36;;;;;;;;;;;;;;;8.80;100.00;99777.72;5013283;28;19918;-87
2023/09/07 13:33:01;;;;;;;;;;;;;;;8.75;100.00;99779.66;5028935;28;19922;-88
2023/09/07 13:35:26;;;;;;;;;;;;;;;8.76;100.00;99776.13;5013998;28;20012;-88
2023/09/07 13:37:52;;;;;;;;;;;;;;;8.79;100.00;99775.13;5029161;28;20292;-88
2023/09/07 13:40:19;;;;;;;;;;;;;;;8.81;100.00;99770.69;5014200;28;19921;-88
2023/09/07 13:42:53;;;;;;;;;;;;;;;8.75;100.00;99769.09;5014043;28;19928;-93
2023/09/07 13:45:18;;;;;;;;;;;;;;;8.75;100.00;99769.09;5012938;28;19975;-88
2023/09/07 13:47:44;;;;;;;;;;;;;;;8.73;100.00;99766.50;5032023;28;19924;-88
2023/09/07 13:50:10;;;;;;;;;;;;;;;8.75;100.00;99774.38;5014064;28;20352;-88
2023/09/07 13:52:35;;;;;;;;;;;;;;;8.76;100.00;99770.84;5031405;28;20020;-89
2023/09/07 13:55:00;;;;;;;;;;;;;;;8.78;100.00;99763.72;5035934;28;20327;-85
2023/09/07 13:57:26;;;;;;;;;;;;;;;8.76;100.00;99754.97;5035627;28;19961;-88
2023/09/07 13:59:55;;;;;;;;;;;;;;;8.82;100.00;99764.44;5033563;28;20693;-87
2023/09/07 14:02:21;;;;;;;;;;;;;;;8.85;100.00;99759.06;5035671;28;19929;-90
2023/09/07 14:04:46;;;;;;;;;;;;;;;8.82;100.00;99760.06;5035663;28;19964;-87
2023/09/07 14:07:12;;;;;;;;;;;;;;;8.83;100.00;99766.19;5017933;28;19921;-87
2023/09/07 14:09:38;;;;;;;;;;;;;;;8.78;100.00;99763.72;5017599;28;19917;-87
2023/09/07 14:12:03;;;;;;;;;;;;;;;8.82;100.00;99761.81;5017466;28;20376;-87
2023/09/07 14:14:29;;;;;;;;;;;;;;;8.84;100.00;99758.22;5017687;28;19925;-87
2023/09/07 14:16:56;;;;;;;;;;;;;;;8.86;100.00;99761.66;5016381;28;19972;-89
2023/09/07 14:19:22;;;;;;;;;;;;;;;8.85;100.00;99767.00;5035247;28;20343;-86
2023/09/07 14:21:47;;;;;;;;;;;;;;;8.83;100.00;99761.75;5035651;28;19925;-88
2023/09/07 14:24:12;;;;;;;;;;;;;;;8.83;100.00;99756.47;5017536;28;19925;-88
2023/09/07 14:26:37;;;;;;;;;;;;;;;8.86;100.00;99764.28;5017374;28;20419;-88
2023/09/07 14:29:03;;;;;;;;;;;;;;;8.84;100.00;99762.59;5035171;28;19928;-86
2023/09/07 14:31:28;;;;;;;;;;;;;;;8.85;100.00;99764.34;5034225;28;19978;-88
2023/09/07 14:33:53;;;;;;;;;;;;;;;8.88;100.00;99756.31;5035280;28;19917;-88
2023/09/07 14:36:19;;;;;;;;;;;;;;;8.95;100.00;99759.59;5035491;28;20384;-85
2023/09/07 14:38:47;;;;;;;;;;;;;;;8.87;100.00;99762.50;5036045;28;19961;-96
2023/09/07 14:41:18;;;;;;;;;;;;;;;8.89;100.00;99761.53;5035185;28;19924;-87
2023/09/07 14:43:44;;;;;;;;;;;;;;;8.82;100.00;99765.34;5034968;28;19925;-86
2023/09/07 14:46:09;;;;;;;;;;;;;;;8.81;100.00;99763.59;5033636;28;20408;-87
2023/09/07 14:48:34;;;;;;;;;;;;;;;8.86;100.00;99766.94;5033560;28;19924;-87
2023/09/07 14:51:00;;;;;;;;;;;;;;;8.89;100.00;99756.25;5035161;28;20454;-87
2023/09/07 14:53:25;;;;;;;;;;;;;;;8.84;100.00;99755.56;5033696;28;20008;-87
2023/09/07 14:55:50;;;;;;;;;;;;;;;8.89;100.00;99756.25;5016323;28;19921;-87
2023/09/07 14:58:15;;;;;;;;;;;;;;;8.86;100.00;99756.38;5035060;28;20022;-88
2023/09/07 15:00:41;;;;;;;;;;;;;;;8.84;100.00;99752.94;5033631;28;19917;-87
2023/09/07 15:03:06;;;;;;;;;;;;;;;8.81;100.00;99744.25;5016685;28;19921;-86
2023/09/07 15:05:31;;;;;;;;;;;;;;;8.89;100.00;99745.69;5033787;28;19917;-86
2023/09/07 15:07:56;;;;;;;;;;;;;;;8.90;100.00;99752.72;5034514;28;19921;-87
2023/09/07 15:10:24;;;;;;;;;;;;;;;8.89;100.00;99750.13;5034473;28;20338;-86
2023/09/07 15:12:49;;;;;;;;;;;;;;;8.86;100.00;99751.06;5033465;28;20379;-86
2023/09/07 15:15:14;;;;;;;;;;;;;;;8.94;100.00;99744.66;5033047;28;19917;-85
2023/09/07 15:17:43;;;;;;;;;;;;;;;8.91;100.00;99741.19;5034375;28;19921;-87
2023/09/07 15:20:09;;;;;;;;;;;;;;;8.88;100.00;99746.59;5017114;28;20004;-86
2023/09/07 15:22:34;;;;;;;;;;;;;;;8.87;100.00;99744.88;5034004;28;19998;-87
2023/09/07 15:25:00;;;;;;;;;;;;;;;8.89;100.00;99737.75;5017203;28;20336;-87
2023/09/07 15:27:26;;;;;;;;;;;;;;;8.89;100.00;99740.41;5035040;28;19917;-88
2023/09/07 15:29:51;;;;;;;;;;;;;;;11.84;100.00;99740.28;5033434;28;19986;-86
2023/09/07 15:32:16;;;;;;;;;;;;;;;8.82;100.00;99741.56;5034835;28;19917;-91
2023/09/07 15:35:08;;;;;;;;;;;;;;;8.04;100.00;99734.53;5015667;28;19986;-92
2023/09/07 15:37:36;;;;;;;;;;;;;;;7.68;100.00;99732.19;4988980;28;19929;-85
2023/09/07 15:40:02;;;;;;;;;;;;;;;7.51;100.00;99727.44;5039341;23;19921;-89
2023/09/07 15:42:30;;;;;;;;;;;;;;;7.29;100.00;99727.22;4996354;28;19934;-90
2023/09/07 15:44:55;;;;;;;;;;;;;;;7.30;100.00;99723.69;5012986;28;19927;-87
2023/09/07 15:47:20;;;;;;;;;;;;;;;7.18;100.00;99727.56;5013785;28;19921;-87
2023/09/07 15:49:46;;;;;;;;;;;;;;;7.18;100.00;99726.69;4997999;28;19948;-85
2023/09/07 15:52:13;;;;;;;;;;;;;;;7.11;100.00;99730.41;4995225;28;20032;-90
2023/09/07 15:54:38;;;;;;;;;;;;;;;7.06;100.00;99726.13;4995467;28;19918;-85
2023/09/07 15:57:03;;;;;;;;;;;;;;;7.07;100.00;99732.28;5012957;28;19932;-85
2023/09/07 15:59:29;;;;;;;;;;;;;;;7.13;100.00;99728.59;5011815;28;19956;-93
2023/09/07 16:01:55;;;;;;;;;;;;;;;7.07;100.00;99727.88;4990542;28;19979;-87
2023/09/07 16:04:20;;;;;;;;;;;;;;;7.00;100.00;99736.00;5012060;28;19921;-88
2023/09/07 16:06:47;;;;;;;;;;;;;;;7.02;100.00;99732.44;5010779;28;20372;-88
2023/09/07 16:09:13;;;;;;;;;;;;;;;6.96;100.00;99732.59;5010454;28;19921;-87
2023/09/07 16:11:38;;;;;;;;;;;;;;;6.93;100.00;99735.31;4992691;28;19928;-86
2023/09/07 16:14:04;;;;;;;;;;;;;;;6.86;100.00;99731.13;4991348;28;19968;-86
2023/09/07 16:16:29;;;;;;;;;;;;;;;6.93;100.00;99730.06;5010445;28;19976;-87
2023/09/07 16:18:54;;;;;;;;;;;;;;;6.81;100.00;99727.75;4990393;28;19944;-87
2023/09/07 16:21:20;;;;;;;;;;;;;;;6.78;100.00;99722.56;4992615;28;20376;-86
2023/09/07 16:23:45;;;;;;;;;;;;;;;6.81;100.00;99725.13;4988971;28;20019;-85
2023/09/07 16:26:10;;;;;;;;;;;;;;;6.73;100.00;99726.22;5010429;28;19984;-86
2023/09/07 16:28:36;;;;;;;;;;;;;;;6.68;100.00;99724.59;5011313;28;19932;-87
2023/09/07 16:31:01;;;;;;;;;;;;;;;6.63;100.00;99727.38;5010571;28;20265;-87
2023/09/07 16:33:26;;;;;;;;;;;;;;;16.16;100.00;99724.41;5012397;28;20032;-85
2023/09/07 16:35:52;;;;;;;;;;;;;;;10.11;100.00;99716.25;5012454;28;20343;-89
2023/09/07 16:38:26;;;;;;;;;;;;;;;8.13;100.00;99718.38;4998233;28;19925;-94
2023/09/07 16:40:51;;;;;;;;;;;;;;;7.62;100.00;99721.81;5006625;28;19937;-90
2023/09/07 16:43:17;;;;;;;;;;;;;;;7.50;100.00;99722.19;4999984;28;19926;-92
2023/09/07 16:45:42;;;;;;;;;;;;;;;7.17;100.00;99717.06;4990652;28;20001;-95
2023/09/07 16:48:07;;;;;;;;;;;;;;;7.02;100.00;99732.44;4985296;28;20301;-93
2023/09/07 16:50:34;;;;;;;;;;;;;;;6.91;100.00;99723.97;4984747;28;20004;-90
2023/09/07 16:52:59;;;;;;;;;;;;;;;6.88;100.00;99731.97;5002101;28;19938;-90
2023/09/07 16:55:24;;;;;;;;;;;;;;;6.80;100.00;99733.94;5001565;28;19925;-85
2023/09/07 16:57:50;;;;;;;;;;;;;;;6.83;100.00;99737.34;4981826;28;19993;-91
2023/09/07 17:00:15;;;;;;;;;;;;;;;6.85;100.00;99745.22;4984037;28;19920;-91
2023/09/07 17:02:40;;;;;;;;;;;;;;;6.76;100.00;99734.94;5001687;28;20886;-90
2023/09/07 17:05:06;;;;;;;;;;;;;;;6.72;100.00;99727.13;4984485;28;20353;-92
2023/09/07 17:07:31;;;;;;;;;;;;;;;6.70;100.00;99726.31;5002422;28;19917;-92
2023/09/07 17:09:56;;;;;;;;;;;;;;;6.66;100.00;99722.00;4982945;28;19921;-92
2023/09/07 17:12:21;;;;;;;;;;;;;;;6.63;100.00;99730.00;5000369;28;20301;-93
2023/09/07 17:14:47;;;;;;;;;;;;;;;6.67;100.00;99729.03;4981767;28;19921;-87
2023/09/07 17:17:12;;;;;;;;;;;;;;;6.70;100.00;99721.03;4986452;28;19929;-87
2023/09/07 17:19:37;;;;;;;;;;;;;;;6.69;100.00;99719.28;4983564;28;19979;-91
2023/09/07 17:22:03;;;;;;;;;;;;;;;6.63;100.00;99727.38;4985376;28;20240;-90
2023/09/07 17:24:28;;;;;;;;;;;;;;;6.64;100.00;99729.09;4984989;28;19922;-93
2023/09/07 17:26:54;;;;;;;;;;;;;;;6.63;100.00;99732.63;4984669;28;20270;-88
2023/09/07 17:29:20;;;;;;;;;;;;;;;6.59;100.00;99733.63;4982013;28;19925;-90
2023/09/07 17:31:46;;;;;;;;;;;;;;;6.61;100.00;99734.44;4983231;28;19925;-90
2023/09/07 17:34:11;;;;;;;;;;;;;;;6.64;100.00;99742.25;4983402;28;19969;-91
2023/09/07 17:36:37;;;;;;;;;;;;;;;6.54;100.00;99746.03;5003472;28;20399;-89
2023/09/07 17:39:03;;;;;;;;;;;;;;;6.61;100.00;99738.88;4983489;28;19968;-87
2023/09/07 17:41:29;;;;;;;;;;;;;;;6.58;100.00;99745.06;4983919;28;20399;-90
2023/09/07 17:43:57;;;;;;;;;;;;;;;6.58;100.00;99746.84;4983146;28;19922;-88
2023/09/07 17:46:22;;;;;;;;;;;;;;;6.62;100.00;99744.09;5000069;28;19995;-88
2023/09/07 17:48:48;;;;;;;;;;;;;;;6.56;100.00;99754.78;4998527;28;20016;-86
2023/09/07 17:51:13;;;;;;;;;;;;;;;6.54;100.00;99752.19;4996009;28;19969;-91
2023/09/07 17:53:38;;;;;;;;;;;;;;;6.50;100.00;99750.53;4982013;28;19924;-88
2023/09/07 17:56:04;;;;;;;;;;;;;;;6.51;100.00;99749.63;5000580;28;19965;-85
2023/09/07 17:58:30;;;;;;;;;;;;;;;6.52;100.00;99751.34;5000627;28;19910;-91
2023/09/07 18:00:55;;;;;;;;;;;;;;;6.54;100.00;99752.19;4996066;28;20792;-89
2023/09/07 18:03:20;;;;;;;;;;;;;;;6.51;100.00;99761.91;4998629;28;19921;-90
2023/09/07 18:05:45;;;;;;;;;;;;;;;6.53;100.00;99755.72;4995050;28;19932;-89
2023/09/07 18:08:11;;;;;;;;;;;;;;;6.55;100.00;99763.56;4980367;28;19925;-89
2023/09/07 18:10:36;;;;;;;;;;;;;;;6.50;100.00;99765.47;4995322;28;19921;-90
2023/09/07 18:13:01;;;;;;;;;;;;;;;6.48;100.00;99757.63;4999707;28;19921;-89
2023/09/07 18:15:26;;;;;;;;;;;;;;;6.49;100.00;99766.38;4977396;28;19929;-88
2023/09/07 18:17:52;;;;;;;;;;;;;;;6.49;100.00;99772.50;4994943;28;20012;-89
2023/09/07 18:20:18;;;;;;;;;;;;;;;6.52;100.00;99774.19;4995287;28;19922;-88
2023/09/07 18:22:44;;;;;;;;;;;;;;;6.52;100.00;99774.19;4998065;28;20469;-89
2023/09/07 18:25:09;;;;;;;;;;;;;;;6.45;100.00;99778.75;4999348;28;19926;-88
2023/09/07 18:27:34;;;;;;;;;;;;;;;6.46;100.00;99775.22;4983503;28;19932;-89
2023/09/07 18:30:00;;;;;;;;;;;;;;;6.53;100.00;99789.09;4999410;28;20768;-90
2023/09/07 18:32:26;;;;;;;;;;;;;;;6.47;100.00;99786.59;4998356;28;19928;-88
2023/09/07 18:34:52;;;;;;;;;;;;;;;6.44;100.00;99792.81;4980501;28;19922;-87
2023/09/07 18:37:17;;;;;;;;;;;;;;;6.44;100.00;99789.31;4994322;28;19921;-91
2023/09/07 18:39:43;;;;;;;;;;;;;;;6.45;100.00;99791.06;4983048;28;19987;-91
2023/09/07 18:42:08;;;;;;;;;;;;;;;6.47;100.00;99791.88;4983739;28;19936;-89
2023/09/07 18:44:33;;;;;;;;;;;;;;;6.48;100.00;99793.63;4982394;28;20012;-88
2023/09/07 18:46:59;;;;;;;;;;;;;;;6.42;100.00;99793.75;4984245;28;19975;-88
2023/09/07 18:49:24;;;;;;;;;;;;;;;6.38;100.00;99808.75;4982517;28;19936;-86
2023/09/07 18:51:50;;;;;;;;;;;;;;;6.46;100.00;99805.94;4986082;28;19952;-89
2023/09/07 18:54:15;;;;;;;;;;;;;;;6.47;100.00;99805.03;4981478;28;20577;-88
2023/09/07 18:56:40;;;;;;;;;;;;;;;6.47;100.00;99797.13;5000848;28;20403;-87
2023/09/07 18:59:09;;;;;;;;;;;;;;;6.47;100.00;99797.13;4998502;28;19921;-87
2023/09/07 19:01:35;;;;;;;;;;;;;;;6.47;100.00;99799.78;5000014;28;20253;-90
2023/09/07 19:04:09;;;;;;;;;;;;;;;6.52;100.00;99808.41;5000872;28;19932;-88
2023/09/07 19:06:46;;;;;;;;;;;;;;;6.56;100.00;99802.16;5000708;28;20012;-95
2023/09/07 19:09:11;;;;;;;;;;;;;;;6.57;100.00;99801.25;4998166;28;19926;-89
2023/09/07 19:11:36;;;;;;;;;;;;;;;6.50;100.00;99804.97;4984147;28;19922;-89
2023/09/07 19:14:02;;;;;;;;;;;;;;;6.45;100.00;99798.94;4986455;28;20288;-90
2023/09/07 19:16:27;;;;;;;;;;;;;;;6.51;100.00;99796.13;4974425;28;20321;-89
2023/09/07 19:18:52;;;;;;;;;;;;;;;6.52;100.00;99798.72;4985712;28;19925;-91
2023/09/07 19:21:18;;;;;;;;;;;;;;;6.41;100.00;99792.03;4984232;28;20353;-92
2023/09/07 19:23:43;;;;;;;;;;;;;;;6.44;100.00;99803.34;4986238;28;19925;-89
2023/09/07 19:26:44;;;;;;;;;;;;;;;6.45;100.00;99798.94;4995041;28;19919;-94
2023/09/07 19:29:10;;;;;;;;;;;;;;;6.44;100.00;99802.47;4959709;28;19970;-94
2023/09/07 19:31:38;;;;;;;;;;;;;;;6.44;100.00;99803.34;4988699;28;19917;-89
2023/09/07 19:34:04;;;;;;;;;;;;;;;6.43;100.00;99812.16;5018166;28;20067;-89
2023/09/07 19:36:30;;;;;;;;;;;;;;;6.45;100.00;99801.59;5021596;28;20012;-86
2023/09/07 19:38:57;;;;;;;;;;;;;;;6.43;100.00;99806.00;5022178;28;19986;-89
2023/09/07 19:41:22;;;;;;;;;;;;;;;6.43;100.00;99796.34;5006383;28;20397;-89
2023/09/07 19:43:48;;;;;;;;;;;;;;;6.43;100.00;99806.00;4991668;28;20008;-89
2023/09/07 19:46:14;;;;;;;;;;;;;;;6.44;100.00;99808.59;4973090;28;19925;-87
2023/09/07 19:48:40;;;;;;;;;;;;;;;6.44;100.00;99803.34;4991863;28;20016;-85
2023/09/07 19:51:11;;;;;;;;;;;;;;;6.46;100.00;99801.53;4973738;28;20373;-87
2023/09/07 19:53:36;;;;;;;;;;;;;;;6.39;100.00;99807.84;4974381;28;19921;-88
2023/09/07 19:56:09;;;;;;;;;;;;;;;6.44;100.00;99813.00;4973146;28;19949;-86
2023/09/07 19:58:35;;;;;;;;;;;;;;;6.44;100.00;99802.47;4991786;28;19933;-90
2023/09/07 20:01:00;;;;;;;;;;;;;;;6.44;100.00;99808.59;4989867;28;19930;-93
2023/09/07 20:03:26;;;;;;;;;;;;;;;6.35;100.00;99814.97;4977538;28;20292;-88
2023/09/07 20:05:51;;;;;;;;;;;;;;;6.38;100.00;99814.00;4975210;28;19950;-85
2023/09/07 20:08:16;;;;;;;;;;;;;;;6.38;100.00;99821.06;4975269;28;20390;-88
2023/09/07 20:10:41;;;;;;;;;;;;;;;6.38;100.00;99808.75;4974346;28;19929;-86
2023/09/07 20:13:08;;;;;;;;;;;;;;;6.41;100.00;99806.03;4974733;28;19968;-88
2023/09/07 20:15:33;;;;;;;;;;;;;;;6.43;100.00;99816.53;4973931;28;19926;-85
2023/09/07 20:17:59;;;;;;;;;;;;;;;6.43;100.00;99819.16;4991802;28;19952;-86
2023/09/07 20:20:24;;;;;;;;;;;;;;;6.43;100.00;99809.53;4972113;28;19926;-86
2023/09/07 20:22:50;;;;;;;;;;;;;;;6.46;100.00;99816.44;4974894;28;19969;-85
2023/09/07 20:25:17;;;;;;;;;;;;;;;6.45;100.00;99817.38;4974475;28;19925;-86
2023/09/07 20:27:42;;;;;;;;;;;;;;;6.48;100.00;99819.94;4991677;28;19922;-86
2023/09/07 20:30:07;;;;;;;;;;;;;;;6.43;100.00;99811.25;4970955;28;19940;-87
2023/09/07 20:32:33;;;;;;;;;;;;;;;6.39;100.00;99820.16;4990039;28;19922;-87
2023/09/07 20:34:58;;;;;;;;;;;;;;;6.30;100.00;99814.22;4967658;28;19929;-86
2023/09/07 20:37:23;;;;;;;;;;;;;;;6.41;100.00;99818.34;4973799;28;19932;-87